sensor_id;sensor_type;location;lat;lon;timestamp;pressure;altitude;pressure_sealevel;temperature;humidity
80869;BME280;70295;40.182;44.498;2024-01-11T00:00:02;90346.17;;;7.49;58.92012
80869;BME280;70295;40.182;44.498;2024-01-11T00:02:02;90344.76;;;7.46;59.06953
80869;BME280;70295;40.182;44.498;2024-01-11T00:04:02;90346.22;;;7.43;59.06562
80869;BME280;70295;40.182;44.498;2024-01-11T00:06:02;90345.86;;;7.38;59.14668
80869;BME280;70295;40.182;44.498;2024-01-11T00:08:02;90349.07;;;7.35;59.26387
80869;BME280;70295;40.182;44.498;2024-01-11T00:10:02;90347.83;;;7.34;59.43574
80869;BME280;70295;40.182;44.498;2024-01-11T00:12:02;90347.5;;;7.31;59.46504
80869;BME280;70295;40.182;44.498;2024-01-11T00:14:02;90345.91;;;7.29;59.70137
80869;BME280;70295;40.182;44.498;2024-01-11T00:16:02;90345.22;;;7.25;59.90547
80869;BME280;70295;40.182;44.498;2024-01-11T00:18:02;90345.38;;;7.27;60.19258
80869;BME280;70295;40.182;44.498;2024-01-11T00:20:02;90349.1;;;7.33;60.24434
80869;BME280;70295;40.182;44.498;2024-01-11T00:22:02;90348.38;;;7.36;60.29121
80869;BME280;70295;40.182;44.498;2024-01-11T00:24:02;90346.22;;;7.37;60.18476
80869;BME280;70295;40.182;44.498;2024-01-11T00:26:02;90349.42;;;7.38;60.18476
80869;BME280;70295;40.182;44.498;2024-01-11T00:28:02;90350.49;;;7.37;60.06367
80869;BME280;70295;40.182;44.498;2024-01-11T00:30:02;90345.38;;;7.34;60.31074
80869;BME280;70295;40.182;44.498;2024-01-11T00:32:02;90343.6;;;7.32;60.26484
80869;BME280;70295;40.182;44.498;2024-01-11T00:34:02;90345.4;;;7.28;60.2043
80869;BME280;70295;40.182;44.498;2024-01-11T00:36:02;90342.55;;;7.27;60.40059
80869;BME280;70295;40.182;44.498;2024-01-11T00:38:02;90343.27;;;7.29;60.44648
80869;BME280;70295;40.182;44.498;2024-01-11T00:40:02;90338.48;;;7.29;60.35762
80869;BME280;70295;40.182;44.498;2024-01-11T00:42:02;90341.31;;;7.29;60.45625
80869;BME280;70295;40.182;44.498;2024-01-11T00:44:02;90338.3;;;7.28;60.38887
80869;BME280;70295;40.182;44.498;2024-01-11T00:46:02;90336.23;;;7.21;60.50996
80869;BME280;70295;40.182;44.498;2024-01-11T00:48:02;90337.28;;;7.21;60.78437
80869;BME280;70295;40.182;44.498;2024-01-11T00:50:02;90332.14;;;7.23;60.71992
80869;BME280;70295;40.182;44.498;2024-01-11T00:52:02;90333.38;;;7.22;60.80781
80869;BME280;70295;40.182;44.498;2024-01-11T00:54:02;90337.11;;;7.22;60.71992
80869;BME280;70295;40.182;44.498;2024-01-11T00:56:02;90335.17;;;7.19;60.80391
80869;BME280;70295;40.182;44.498;2024-01-11T00:58:02;90333.94;;;7.18;60.83516
80869;BME280;70295;40.182;44.498;2024-01-11T01:00:02;90332.16;;;7.18;60.98848
80869;BME280;70295;40.182;44.498;2024-01-11T01:02:02;90336.04;;;7.2;61.06758
80869;BME280;70295;40.182;44.498;2024-01-11T01:04:02;90336.39;;;7.2;60.98945
80869;BME280;70295;40.182;44.498;2024-01-11T01:06:02;90335.36;;;7.16;60.92012
80869;BME280;70295;40.182;44.498;2024-01-11T01:08:02;90337.14;;;7.11;60.76973
80869;BME280;70295;40.182;44.498;2024-01-11T01:10:02;90334.19;;;7.01;60.6125
80869;BME280;70295;40.182;44.498;2024-01-11T01:12:02;90337.04;;;6.89;60.55293
80869;BME280;70295;40.182;44.498;2024-01-11T01:14:02;90331.44;;;6.8;60.70332
80869;BME280;70295;40.182;44.498;2024-01-11T01:16:02;90330.02;;;6.79;60.90937
80869;BME280;70295;40.182;44.498;2024-01-11T01:18:02;90333.01;;;6.82;60.79316
80869;BME280;70295;40.182;44.498;2024-01-11T01:20:02;90325.58;;;6.83;60.36836
80869;BME280;70295;40.182;44.498;2024-01-11T01:22:02;90324.17;;;6.83;59.86738
80869;BME280;70295;40.182;44.498;2024-01-11T01:24:02;90324.34;;;6.82;59.5373
80869;BME280;70295;40.182;44.498;2024-01-11T01:26:02;90327.7;;;6.83;59.25605
80869;BME280;70295;40.182;44.498;2024-01-11T01:28:02;90326.64;;;6.78;58.99824
80869;BME280;70295;40.182;44.498;2024-01-11T01:30:02;90324.7;;;6.76;58.88496
80869;BME280;70295;40.182;44.498;2024-01-11T01:32:02;90327.56;;;6.73;58.57539
80869;BME280;70295;40.182;44.498;2024-01-11T01:34:02;90329.31;;;6.66;58.26094
80869;BME280;70295;40.182;44.498;2024-01-11T01:36:02;90327.75;;;6.54;58.2209
80869;BME280;70295;40.182;44.498;2024-01-11T01:38:02;90330.75;;;6.51;58.33906
80869;BME280;70295;40.182;44.498;2024-01-11T01:40:02;90330.22;;;6.55;58.34297
80869;BME280;70295;40.182;44.498;2024-01-11T01:42:02;90325.26;;;6.58;58.15059
80869;BME280;70295;40.182;44.498;2024-01-11T01:44:02;90330.74;;;6.56;57.8957
80869;BME280;70295;40.182;44.498;2024-01-11T01:46:02;90327.23;;;6.53;57.73945
80869;BME280;70295;40.182;44.498;2024-01-11T01:48:02;90324.92;;;6.54;57.59883
80869;BME280;70295;40.182;44.498;2024-01-11T01:50:02;90335.38;;;6.51;57.33223
80869;BME280;70295;40.182;44.498;2024-01-11T01:52:02;90323.52;;;6.44;57.21309
80869;BME280;70295;40.182;44.498;2024-01-11T01:54:02;90329;;;6.46;57.30488
80869;BME280;70295;40.182;44.498;2024-01-11T01:56:02;90329.52;;;6.5;57.32051
80869;BME280;70295;40.182;44.498;2024-01-11T01:58:02;90327.06;;;6.53;57.00898
80869;BME280;70295;40.182;44.498;2024-01-11T02:00:02;90330.23;;;6.52;56.84199
80869;BME280;70295;40.182;44.498;2024-01-11T02:02:02;90328.28;;;6.55;56.7043
80869;BME280;70295;40.182;44.498;2024-01-11T02:04:02;90332.69;;;6.57;56.49922
80869;BME280;70295;40.182;44.498;2024-01-11T02:06:02;90333.59;;;6.59;56.30586
80869;BME280;70295;40.182;44.498;2024-01-11T02:08:03;90331.26;;;6.6;56.12129
80869;BME280;70295;40.182;44.498;2024-01-11T02:10:02;90333.58;;;6.61;56.01289
80869;BME280;70295;40.182;44.498;2024-01-11T02:12:02;90329.84;;;6.62;55.99238
80869;BME280;70295;40.182;44.498;2024-01-11T02:14:02;90333.22;;;6.65;55.87715
80869;BME280;70295;40.182;44.498;2024-01-11T02:16:02;90331.44;;;6.65;55.66816
80869;BME280;70295;40.182;44.498;2024-01-11T02:18:02;90334.44;;;6.66;55.52851
80869;BME280;70295;40.182;44.498;2024-01-11T02:20:02;90327.36;;;6.66;55.30879
80869;BME280;70295;40.182;44.498;2024-01-11T02:22:05;90331.79;;;6.63;55.01973
80869;BME280;70295;40.182;44.498;2024-01-11T02:24:05;90330.23;;;6.55;54.84687
80869;BME280;70295;40.182;44.498;2024-01-11T02:26:02;90327.03;;;6.52;54.91914
80869;BME280;70295;40.182;44.498;2024-01-11T02:28:02;90329.36;;;6.52;54.86445
80869;BME280;70295;40.182;44.498;2024-01-11T02:30:02;90326.88;;;6.51;54.78633
80869;BME280;70295;40.182;44.498;2024-01-11T02:32:02;90330.23;;;6.48;54.65156
80869;BME280;70295;40.182;44.498;2024-01-11T02:34:02;90330.95;;;6.46;54.73652
80869;BME280;70295;40.182;44.498;2024-01-11T02:36:02;90333.78;;;6.44;54.54805
80869;BME280;70295;40.182;44.498;2024-01-11T02:38:02;90333.59;;;6.41;54.3918
80869;BME280;70295;40.182;44.498;2024-01-11T02:40:02;90333.08;;;6.37;54.18965
80869;BME280;70295;40.182;44.498;2024-01-11T02:42:02;90336.09;;;6.34;54.09687
80869;BME280;70295;40.182;44.498;2024-01-11T02:44:02;90338.56;;;6.29;54.09101
80869;BME280;70295;40.182;44.498;2024-01-11T02:46:02;90346.53;;;6.27;54.06855
80869;BME280;70295;40.182;44.498;2024-01-11T02:48:02;90346.01;;;6.25;54.13008
80869;BME280;70295;40.182;44.498;2024-01-11T02:50:02;90345.98;;;6.29;54.23359
80869;BME280;70295;40.182;44.498;2024-01-11T02:52:02;90341.05;;;6.32;54.18379
80869;BME280;70295;40.182;44.498;2024-01-11T02:54:02;90335.92;;;6.36;54.15547
80869;BME280;70295;40.182;44.498;2024-01-11T02:56:02;90337.7;;;6.36;53.90254
80869;BME280;70295;40.182;44.498;2024-01-11T02:58:02;90340.88;;;6.32;53.85566
80869;BME280;70295;40.182;44.498;2024-01-11T03:00:02;90342.66;;;6.3;53.89766
80869;BME280;70295;40.182;44.498;2024-01-11T03:02:02;90344.95;;;6.3;53.88496
80869;BME280;70295;40.182;44.498;2024-01-11T03:04:02;90347.42;;;6.26;53.56269
80869;BME280;70295;40.182;44.498;2024-01-11T03:06:02;90352.02;;;6.19;53.52266
80869;BME280;70295;40.182;44.498;2024-01-11T03:08:02;90346.55;;;6.1;53.47773
80869;BME280;70295;40.182;44.498;2024-01-11T03:10:02;90344.06;;;6.08;53.51973
80869;BME280;70295;40.182;44.498;2024-01-11T03:12:02;90344.44;;;6.09;53.43184
80869;BME280;70295;40.182;44.498;2024-01-11T03:14:02;90344.59;;;6.1;53.31269
80869;BME280;70295;40.182;44.498;2024-01-11T03:16:02;90343.72;;;6.07;53.13594
80869;BME280;70295;40.182;44.498;2024-01-11T03:18:02;90345.3;;;6.05;53.19746
80869;BME280;70295;40.182;44.498;2024-01-11T03:20:02;90345.13;;;6.08;53.27949
80869;BME280;70295;40.182;44.498;2024-01-11T03:22:02;90347.44;;;6.11;53.09687
80869;BME280;70295;40.182;44.498;2024-01-11T03:24:02;90349.89;;;6.14;53.18672
80869;BME280;70295;40.182;44.498;2024-01-11T03:26:02;90351.31;;;6.19;53.18281
80869;BME280;70295;40.182;44.498;2024-01-11T03:28:02;90352.03;;;6.25;53.12519
80869;BME280;70295;40.182;44.498;2024-01-11T03:30:02;90352;;;6.29;53.17305
80869;BME280;70295;40.182;44.498;2024-01-11T03:32:02;90346.53;;;6.32;53.02363
80869;BME280;70295;40.182;44.498;2024-01-11T03:34:02;90348.47;;;6.35;52.95234
80869;BME280;70295;40.182;44.498;2024-01-11T03:38:02;90352.17;;;6.38;53.05391
80869;BME280;70295;40.182;44.498;2024-01-11T03:40:02;90351.82;;;6.38;53.30488
80869;BME280;70295;40.182;44.498;2024-01-11T03:42:02;90349.36;;;6.38;53.87226
80869;BME280;70295;40.182;44.498;2024-01-11T03:44:02;90350.77;;;6.38;54.55
80869;BME280;70295;40.182;44.498;2024-01-11T03:46:02;90353.42;;;6.39;55.18672
80869;BME280;70295;40.182;44.498;2024-01-11T03:48:02;90351.3;;;6.38;55.7082
80869;BME280;70295;40.182;44.498;2024-01-11T03:50:02;90356.23;;;6.38;56.16816
80869;BME280;70295;40.182;44.498;2024-01-11T03:52:02;90352.88;;;6.38;56.54023
80869;BME280;70295;40.182;44.498;2024-01-11T03:59:11;90360.86;;;6.31;57.29414
80869;BME280;70295;40.182;44.498;2024-01-11T04:01:11;90356.95;;;6.32;57.55781
80869;BME280;70295;40.182;44.498;2024-01-11T04:03:11;90358.03;;;6.32;57.75508
80869;BME280;70295;40.182;44.498;2024-01-11T04:05:11;90360.48;;;6.33;57.91914
80869;BME280;70295;40.182;44.498;2024-01-11T04:07:11;90359.96;;;6.31;57.94941
80869;BME280;70295;40.182;44.498;2024-01-11T04:09:11;90362.61;;;6.28;58.01094
80869;BME280;70295;40.182;44.498;2024-01-11T04:11:11;90364.73;;;6.27;58.1623
80869;BME280;70295;40.182;44.498;2024-01-11T04:13:11;90363.67;;;6.27;58.28437
80869;BME280;70295;40.182;44.498;2024-01-11T04:15:11;90364.02;;;6.27;58.35957
80869;BME280;70295;40.182;44.498;2024-01-11T04:17:11;90360.5;;;6.28;58.36055
80869;BME280;70295;40.182;44.498;2024-01-11T04:19:11;90357.3;;;6.29;58.36152
80869;BME280;70295;40.182;44.498;2024-01-11T04:23:11;90356.96;;;6.26;58.17207
80869;BME280;70295;40.182;44.498;2024-01-11T04:25:11;90360.67;;;6.26;58.1291
80869;BME280;70295;40.182;44.498;2024-01-11T04:27:11;90355.2;;;6.25;58.12715
80869;BME280;70295;40.182;44.498;2024-01-11T04:29:11;90358.02;;;6.26;58.06172
80869;BME280;70295;40.182;44.498;2024-01-11T04:31:11;90359.8;;;6.27;58.04219
80869;BME280;70295;40.182;44.498;2024-01-11T04:33:11;90357.86;;;6.27;57.96601
80869;BME280;70295;40.182;44.498;2024-01-11T04:35:11;90360.69;;;6.28;57.82539
80869;BME280;70295;40.182;44.498;2024-01-11T04:37:11;90361.91;;;6.3;57.65351
80869;BME280;70295;40.182;44.498;2024-01-11T04:39:11;90359.79;;;6.3;57.62031
80869;BME280;70295;40.182;44.498;2024-01-11T04:41:12;90365.8;;;6.31;57.53437
80869;BME280;70295;40.182;44.498;2024-01-11T04:43:11;90359.95;;;6.31;57.41621
80869;BME280;70295;40.182;44.498;2024-01-11T04:45:11;90358.73;;;6.3;57.425
80869;BME280;70295;40.182;44.498;2024-01-11T04:47:11;90364.38;;;6.3;57.425
80869;BME280;70295;40.182;44.498;2024-01-11T04:49:11;90365.28;;;6.28;57.36738
80869;BME280;70295;40.182;44.498;2024-01-11T04:51:14;90366.86;;;6.28;57.46504
80869;BME280;70295;40.182;44.498;2024-01-11T04:53:11;90362.45;;;6.25;57.63594
80869;BME280;70295;40.182;44.498;2024-01-11T04:55:11;90363.5;;;6.25;57.87617
80869;BME280;70295;40.182;44.498;2024-01-11T04:57:11;90362.98;;;6.27;58.04219
80869;BME280;70295;40.182;44.498;2024-01-11T04:59:11;90362.25;;;6.28;58.20723
80869;BME280;70295;40.182;44.498;2024-01-11T05:01:12;90365.63;;;6.31;58.33125
80869;BME280;70295;40.182;44.498;2024-01-11T05:03:11;90369.68;;;6.34;58.45527
80869;BME280;70295;40.182;44.498;2024-01-11T05:05:11;90369.69;;;6.37;58.50312
80869;BME280;70295;40.182;44.498;2024-01-11T05:07:11;90367.91;;;6.39;58.47285
80869;BME280;70295;40.182;44.498;2024-01-11T05:09:11;90370.38;;;6.39;58.40937
80869;BME280;70295;40.182;44.498;2024-01-11T05:13:11;90369.68;;;6.34;58.18281
80869;BME280;70295;40.182;44.498;2024-01-11T05:15:11;90375.15;;;6.36;58.37031
80869;BME280;70295;40.182;44.498;2024-01-11T05:17:11;90373.91;;;6.4;58.36641
80869;BME280;70295;40.182;44.498;2024-01-11T05:24:40;90373.91;;;6.54;58.11348
80869;BME280;70295;40.182;44.498;2024-01-11T05:26:40;90376.73;;;6.58;58.05098
80869;BME280;70295;40.182;44.498;2024-01-11T05:28:40;90378.66;;;6.59;57.94453
80869;BME280;70295;40.182;44.498;2024-01-11T05:30:40;90381.16;;;6.61;57.83809
80869;BME280;70295;40.182;44.498;2024-01-11T05:32:40;90378.48;;;6.64;57.77656
80869;BME280;70295;40.182;44.498;2024-01-11T05:34:40;90378.13;;;6.66;57.72578
80869;BME280;70295;40.182;44.498;2024-01-11T05:36:40;90377.97;;;6.69;57.60859
80869;BME280;70295;40.182;44.498;2024-01-11T05:38:40;90373.55;;;6.72;57.54609
80869;BME280;70295;40.182;44.498;2024-01-11T05:46:14;90379.74;;;6.68;57.0832
80869;BME280;70295;40.182;44.498;2024-01-11T05:48:15;90379.05;;;6.69;57.14863
80869;BME280;70295;40.182;44.498;2024-01-11T05:50:14;90380.98;;;6.7;57.18281
80869;BME280;70295;40.182;44.498;2024-01-11T05:52:14;90381.33;;;6.71;57.1623
80869;BME280;70295;40.182;44.498;2024-01-11T05:54:14;90381.15;;;6.73;57.20918
80869;BME280;70295;40.182;44.498;2024-01-11T05:56:14;90388.21;;;6.77;57.22578
80869;BME280;70295;40.182;44.498;2024-01-11T05:58:14;90382.72;;;6.8;57.15351
80869;BME280;70295;40.182;44.498;2024-01-11T06:00:14;90387.49;;;6.83;57.20039
80869;BME280;70295;40.182;44.498;2024-01-11T06:02:14;90386.95;;;6.86;57.19453
80869;BME280;70295;40.182;44.498;2024-01-11T06:04:14;90386.93;;;6.91;57.12422
80869;BME280;70295;40.182;44.498;2024-01-11T06:06:14;90390.82;;;6.98;57.16621
80869;BME280;70295;40.182;44.498;2024-01-11T06:08:14;90386.2;;;7.06;56.99141
80869;BME280;70295;40.182;44.498;2024-01-11T06:10:14;90389.52;;;7.12;56.80195
80869;BME280;70295;40.182;44.498;2024-01-11T06:12:14;90391.64;;;7.17;56.64473
80869;BME280;70295;40.182;44.498;2024-01-11T06:14:14;90390.23;;;7.18;56.40644
80869;BME280;70295;40.182;44.498;2024-01-11T06:16:14;90388.63;;;7.22;56.20332
80869;BME280;70295;40.182;44.498;2024-01-11T06:18:14;90382.95;;;7.23;56.02754
80869;BME280;70295;40.182;44.498;2024-01-11T06:20:14;90385.06;;;7.25;55.90059
80869;BME280;70295;40.182;44.498;2024-01-11T06:22:14;90382.56;;;7.27;55.71797
80869;BME280;70295;40.182;44.498;2024-01-11T06:24:14;90385.4;;;7.3;55.4582
80869;BME280;70295;40.182;44.498;2024-01-11T06:26:14;90384.52;;;7.31;55.29512
80869;BME280;70295;40.182;44.498;2024-01-11T06:28:14;90383.79;;;7.33;55.08027
80869;BME280;70295;40.182;44.498;2024-01-11T06:30:14;90382.02;;;7.35;54.94941
80869;BME280;70295;40.182;44.498;2024-01-11T06:32:14;90378.47;;;7.36;54.88496
80869;BME280;70295;40.182;44.498;2024-01-11T06:34:14;90375.27;;;7.38;54.85469
80869;BME280;70295;40.182;44.498;2024-01-11T06:36:14;90372.61;;;7.4;54.85859
80869;BME280;70295;40.182;44.498;2024-01-11T06:38:14;90375.45;;;7.42;54.83809
80869;BME280;70295;40.182;44.498;2024-01-11T06:40:14;90375.95;;;7.44;54.74238
80869;BME280;70295;40.182;44.498;2024-01-11T06:42:14;90376.13;;;7.45;54.49141
80869;BME280;70295;40.182;44.498;2024-01-11T06:44:14;90379.31;;;7.43;54.43476
80869;BME280;70295;40.182;44.498;2024-01-11T06:46:18;90382.33;;;7.42;54.40059
80869;BME280;70295;40.182;44.498;2024-01-11T06:48:14;90382.5;;;7.43;54.31367
80869;BME280;70295;40.182;44.498;2024-01-11T06:50:14;90384.98;;;7.44;54.24922
80869;BME280;70295;40.182;44.498;2024-01-11T06:52:14;90385.31;;;7.46;54.15351
80869;BME280;70295;40.182;44.498;2024-01-11T06:54:14;90385.31;;;7.47;53.9582
80869;BME280;70295;40.182;44.498;2024-01-11T06:56:17;90384.42;;;7.48;53.80488
80869;BME280;70295;40.182;44.498;2024-01-11T06:58:15;90384.44;;;7.49;53.56465
80869;BME280;70295;40.182;44.498;2024-01-11T07:00:14;90384.43;;;7.49;53.40059
80869;BME280;70295;40.182;44.498;2024-01-11T07:02:14;90382.13;;;7.5;53.35762
80869;BME280;70295;40.182;44.498;2024-01-11T07:04:14;90381.05;;;7.52;53.19746
80869;BME280;70295;40.182;44.498;2024-01-11T07:06:14;90380.84;;;7.55;53.06855
80869;BME280;70295;40.182;44.498;2024-01-11T07:08:14;90385.8;;;7.59;52.99726
80869;BME280;70295;40.182;44.498;2024-01-11T07:10:14;90377.97;;;7.64;52.90351
80869;BME280;70295;40.182;44.498;2024-01-11T07:12:14;90375.61;;;7.73;52.79512
80869;BME280;70295;40.182;44.498;2024-01-11T07:14:14;90372.73;;;7.84;52.62226
80869;BME280;70295;40.182;44.498;2024-01-11T07:16:14;90371.08;;;7.92;52.47871
80869;BME280;70295;40.182;44.498;2024-01-11T07:18:14;90368.01;;;7.98;52.15742
80869;BME280;70295;40.182;44.498;2024-01-11T07:20:14;90365.55;;;7.98;51.90351
80869;BME280;70295;40.182;44.498;2024-01-11T07:22:14;90364.66;;;7.96;51.76973
80869;BME280;70295;40.182;44.498;2024-01-11T07:24:14;90361.66;;;7.96;51.79121
80869;BME280;70295;40.182;44.498;2024-01-11T07:26:14;90355.44;;;7.99;51.83906
80869;BME280;70295;40.182;44.498;2024-01-11T07:28:14;90353.09;;;8.04;51.81269
80869;BME280;70295;40.182;44.498;2024-01-11T07:30:14;90349.5;;;8.1;51.84101
80869;BME280;70295;40.182;44.498;2024-01-11T07:32:14;90345.2;;;8.14;51.57148
80869;BME280;70295;40.182;44.498;2024-01-11T07:34:14;90344.17;;;8.12;51.34004
80869;BME280;70295;40.182;44.498;2024-01-11T07:36:14;90344.52;;;8.11;51.29316
80869;BME280;70295;40.182;44.498;2024-01-11T07:38:14;90342.05;;;8.1;51.21699
80869;BME280;70295;40.182;44.498;2024-01-11T07:40:14;90340.64;;;8.09;51.09394
80869;BME280;70295;40.182;44.498;2024-01-11T07:42:14;90338.17;;;8.09;50.90547
80869;BME280;70295;40.182;44.498;2024-01-11T07:44:14;90333.03;;;8.07;50.72871
80869;BME280;70295;40.182;44.498;2024-01-11T07:46:14;90331.27;;;8.08;50.53242
80869;BME280;70295;40.182;44.498;2024-01-11T07:48:14;90328.98;;;8.06;50.40937
80869;BME280;70295;40.182;44.498;2024-01-11T07:50:14;90330.39;;;8.07;50.31172
80869;BME280;70295;40.182;44.498;2024-01-11T07:52:14;90329.15;;;8.07;50.21113
80869;BME280;70295;40.182;44.498;2024-01-11T07:54:14;90328.77;;;8.08;50.18086
80869;BME280;70295;40.182;44.498;2024-01-11T07:56:14;90325.91;;;8.1;50.29414
80869;BME280;70295;40.182;44.498;2024-01-11T07:58:14;90329.24;;;8.16;50.34394
80869;BME280;70295;40.182;44.498;2024-01-11T08:00:14;90329.06;;;8.18;50.35762
80869;BME280;70295;40.182;44.498;2024-01-11T08:02:14;90322.81;;;8.2;50.20625
80869;BME280;70295;40.182;44.498;2024-01-11T08:04:14;90321.37;;;8.24;50.08906
80869;BME280;70295;40.182;44.498;2024-01-11T08:06:14;90321.55;;;8.26;50.06953
80869;BME280;70295;40.182;44.498;2024-01-11T08:08:14;90318.34;;;8.28;50.14863
80869;BME280;70295;40.182;44.498;2024-01-11T08:10:14;90312.44;;;8.33;50.14375
80869;BME280;70295;40.182;44.498;2024-01-11T08:12:14;90311.48;;;8.39;50.05293
80869;BME280;70295;40.182;44.498;2024-01-11T08:14:14;90304.7;;;8.45;49.81758
80869;BME280;70295;40.182;44.498;2024-01-11T08:16:17;90302.16;;;8.53;49.69453
80869;BME280;70295;40.182;44.498;2024-01-11T08:18:14;90301.2;;;8.6;49.55
80869;BME280;70295;40.182;44.498;2024-01-11T08:20:14;90291.74;;;8.66;49.36934
80869;BME280;70295;40.182;44.498;2024-01-11T08:22:14;90287.09;;;8.69;49.06562
80869;BME280;70295;40.182;44.498;2024-01-11T08:24:14;90286.55;;;8.7;49.08809
80869;BME280;70295;40.182;44.498;2024-01-11T08:26:14;90285.42;;;8.75;49.08223
80869;BME280;70295;40.182;44.498;2024-01-11T08:28:14;90285.02;;;8.81;48.40644
80869;BME280;70295;40.182;44.498;2024-01-11T08:30:14;90269.22;;;8.8;47.69062
80869;BME280;70295;40.182;44.498;2024-01-11T08:32:14;90272.33;;;8.72;47.98945
80869;BME280;70295;40.182;44.498;2024-01-11T08:34:14;90275.02;;;8.7;48.15254
80869;BME280;70295;40.182;44.498;2024-01-11T08:36:14;90265.28;;;8.68;48.23848
80869;BME280;70295;40.182;44.498;2024-01-11T08:38:14;90263.85;;;8.7;48.37226
80869;BME280;70295;40.182;44.498;2024-01-11T08:40:14;90265.95;;;8.7;48.19551
80869;BME280;70295;40.182;44.498;2024-01-11T08:42:14;90257.99;;;8.69;48.06367
80869;BME280;70295;40.182;44.498;2024-01-11T08:44:14;90252.32;;;8.7;48.03047
80869;BME280;70295;40.182;44.498;2024-01-11T08:46:22;90254.95;;;8.7;48.00898
80869;BME280;70295;40.182;44.498;2024-01-11T08:48:14;90249.48;;;8.68;48.25996
80869;BME280;70295;40.182;44.498;2024-01-11T08:50:14;90246.11;;;8.68;48.64473
80869;BME280;70295;40.182;44.498;2024-01-11T08:52:14;90235.3;;;8.66;48.96211
80869;BME280;70295;40.182;44.498;2024-01-11T08:54:14;90237.45;;;8.66;49.14961
80869;BME280;70295;40.182;44.498;2024-01-11T08:56:14;90233.72;;;8.66;49.33613
80869;BME280;70295;40.182;44.498;2024-01-11T08:58:14;90239.22;;;8.66;49.57832
80869;BME280;70295;40.182;44.498;2024-01-11T09:00:14;90233.92;;;8.63;49.72871
80869;BME280;70295;40.182;44.498;2024-01-11T09:02:14;90236.41;;;8.62;49.85957
80869;BME280;70295;40.182;44.498;2024-01-11T09:04:14;90233.6;;;8.6;50.0998
80869;BME280;70295;40.182;44.498;2024-01-11T09:06:14;90230.78;;;8.6;50.35176
80869;BME280;70295;40.182;44.498;2024-01-11T09:08:14;90223.14;;;8.61;50.50801
80869;BME280;70295;40.182;44.498;2024-01-11T09:10:14;90220.11;;;8.62;50.69453
80869;BME280;70295;40.182;44.498;2024-01-11T09:12:14;90217.28;;;8.61;50.76094
80869;BME280;70295;40.182;44.498;2024-01-11T09:14:14;90214.42;;;8.61;50.90351
80869;BME280;70295;40.182;44.498;2024-01-11T09:16:15;90208.38;;;8.64;51.01582
80869;BME280;70295;40.182;44.498;2024-01-11T09:18:14;90207.45;;;8.66;50.96406
80869;BME280;70295;40.182;44.498;2024-01-11T09:20:14;90203.19;;;8.67;50.94355
80869;BME280;70295;40.182;44.498;2024-01-11T09:22:14;90203.02;;;8.66;51.10762
80869;BME280;70295;40.182;44.498;2024-01-11T09:24:14;90198.91;;;8.68;51.21992
80869;BME280;70295;40.182;44.498;2024-01-11T09:26:14;90194.13;;;8.68;51.23066
80869;BME280;70295;40.182;44.498;2024-01-11T09:28:14;90191.66;;;8.67;51.32832
80869;BME280;70295;40.182;44.498;2024-01-11T09:30:14;90189.69;;;8.66;51.39277
80869;BME280;70295;40.182;44.498;2024-01-11T09:32:14;90181.17;;;8.66;51.48164
80869;BME280;70295;40.182;44.498;2024-01-11T09:34:14;90181.36;;;8.66;51.52559
80869;BME280;70295;40.182;44.498;2024-01-11T09:36:14;90181.02;;;8.67;51.52754
80869;BME280;70295;40.182;44.498;2024-01-11T09:38:14;90172.5;;;8.67;51.61543
80869;BME280;70295;40.182;44.498;2024-01-11T09:40:14;90177.07;;;8.69;51.69355
80869;BME280;70295;40.182;44.498;2024-01-11T09:42:14;90174.22;;;8.7;51.66133
80869;BME280;70295;40.182;44.498;2024-01-11T09:44:14;90169.09;;;8.69;51.60566
80869;BME280;70295;40.182;44.498;2024-01-11T09:46:14;90168.05;;;8.67;51.58125
80869;BME280;70295;40.182;44.498;2024-01-11T09:48:14;90164.36;;;8.65;51.70039
80869;BME280;70295;40.182;44.498;2024-01-11T09:50:15;90161.88;;;8.63;51.71992
80869;BME280;70295;40.182;44.498;2024-01-11T09:52:14;90164.55;;;8.63;51.80781
80869;BME280;70295;40.182;44.498;2024-01-11T09:54:14;90158;;;8.63;52.03828
80869;BME280;70295;40.182;44.498;2024-01-11T09:56:14;90157.98;;;8.63;52.20332
80869;BME280;70295;40.182;44.498;2024-01-11T09:58:14;90150.7;;;8.63;52.20332
80869;BME280;70295;40.182;44.498;2024-01-11T10:00:17;90150.04;;;8.6;52.34297
80869;BME280;70295;40.182;44.498;2024-01-11T10:02:14;90149.21;;;8.57;52.42598
80869;BME280;70295;40.182;44.498;2024-01-11T10:04:14;90145.69;;;8.53;52.50019
80869;BME280;70295;40.182;44.498;2024-01-11T10:06:14;90140.72;;;8.51;52.54023
80869;BME280;70295;40.182;44.498;2024-01-11T10:08:14;90141.64;;;8.49;52.63691
80869;BME280;70295;40.182;44.498;2024-01-11T10:10:14;90138.1;;;8.48;52.71309
80869;BME280;70295;40.182;44.498;2024-01-11T10:12:14;90136.14;;;8.48;52.88789
80869;BME280;70295;40.182;44.498;2024-01-11T10:14:14;90128.36;;;8.48;53.01973
80869;BME280;70295;40.182;44.498;2024-01-11T10:16:14;90129.22;;;8.49;53.2082
80869;BME280;70295;40.182;44.498;2024-01-11T10:18:14;90124.4;;;8.51;53.27656
80869;BME280;70295;40.182;44.498;2024-01-11T10:20:14;90122.81;;;8.53;53.27949
80869;BME280;70295;40.182;44.498;2024-01-11T10:22:14;90119.08;;;8.54;53.3791
80869;BME280;70295;40.182;44.498;2024-01-11T10:24:17;90118.86;;;8.55;53.21699
80869;BME280;70295;40.182;44.498;2024-01-11T10:26:17;90114.81;;;8.55;53.25898
80869;BME280;70295;40.182;44.498;2024-01-11T10:28:14;90110.89;;;8.56;53.30586
80869;BME280;70295;40.182;44.498;2024-01-11T10:30:15;90107.31;;;8.58;53.29609
80869;BME280;70295;40.182;44.498;2024-01-11T10:32:14;90106.02;;;8.61;53.27851
80869;BME280;70295;40.182;44.498;2024-01-11T10:34:14;90097.31;;;8.63;53.13789